createdAt,value
2022-10-26T00:00:50.859Z,98446.88
2022-10-26T00:03:18.010Z,98450.44
2022-10-26T00:05:44.961Z,98449.25
2022-10-26T00:08:11.753Z,98449.09
2022-10-26T00:10:39.165Z,98441.69
2022-10-26T00:13:09.743Z,98445.94
2022-10-26T00:15:40.167Z,98448.75
2022-10-26T00:18:06.772Z,98414.97
2022-10-26T00:20:33.344Z,98445.47
2022-10-26T00:22:59.910Z,98454.72
2022-10-26T00:25:26.414Z,98456.34
2022-10-26T00:27:53.138Z,98457.84
2022-10-26T00:30:19.686Z,98455.22
2022-10-26T00:32:46.284Z,98457.50
2022-10-26T00:35:23.055Z,98456.34
2022-10-26T00:37:59.877Z,98455.81
2022-10-26T00:40:30.035Z,98454.75
2022-10-26T00:42:56.733Z,98468.25
2022-10-26T00:45:29.154Z,98455.94
2022-10-26T00:48:02.951Z,98450.59
2022-10-26T00:50:36.766Z,98452.72
2022-10-26T00:53:06.391Z,98467.16
2022-10-26T00:55:37.452Z,98447.16
2022-10-26T00:58:07.168Z,98457.47
2022-10-26T01:00:33.756Z,98456.66
2022-10-26T01:03:04.422Z,98454.00
2022-10-26T01:05:32.157Z,98453.00
2022-10-26T01:07:58.817Z,98448.28
2022-10-26T01:10:26.461Z,98456.34
2022-10-26T01:12:54.537Z,98449.44
2022-10-26T01:15:25.107Z,98446.16
2022-10-26T01:18:02.461Z,98445.69
2022-10-26T01:20:42.794Z,98442.22
2022-10-26T01:23:16.239Z,98440.53
2022-10-26T01:26:13.370Z,98434.31
2022-10-26T01:29:19.926Z,98396.63
2022-10-26T01:31:59.934Z,98429.44
2022-10-26T01:34:36.130Z,98429.66
2022-10-26T01:37:11.996Z,98425.84
2022-10-26T01:39:44.935Z,98422.53
2022-10-26T01:42:15.572Z,98385.53
2022-10-26T01:45:03.446Z,98418.88
2022-10-26T01:47:33.714Z,98410.31
2022-10-26T01:50:02.333Z,98412.81
2022-10-26T01:52:29.140Z,98412.47
2022-10-26T01:55:03.344Z,98415.28
2022-10-26T01:57:35.284Z,98413.06
2022-10-26T02:00:11.871Z,98410.25
2022-10-26T02:03:01.797Z,98413.25
2022-10-26T02:05:51.209Z,98409.81
2022-10-26T02:08:31.248Z,98413.63
2022-10-26T02:11:06.907Z,98409.84
2022-10-26T02:13:48.341Z,98423.28
2022-10-26T02:16:28.889Z,98406.53
2022-10-26T02:19:06.152Z,98375.19
2022-10-26T02:21:39.438Z,98403.69
2022-10-26T02:24:10.417Z,98403.97
2022-10-26T02:26:40.987Z,98407.06
2022-10-26T02:29:11.387Z,98413.94
2022-10-26T02:31:39.293Z,98403.88
2022-10-26T02:34:09.551Z,98406.72
2022-10-26T02:36:41.542Z,98372.56
2022-10-26T02:39:10.090Z,98399.44
2022-10-26T02:41:39.767Z,98394.28
2022-10-26T02:44:14.509Z,98403.94
2022-10-26T02:46:42.229Z,98396.88
2022-10-26T02:49:08.805Z,98392.25
2022-10-26T02:51:43.877Z,98388.66
2022-10-26T02:54:13.436Z,98389.03
2022-10-26T02:56:54.321Z,98373.91
2022-10-26T02:59:24.861Z,98386.31
2022-10-26T03:01:52.793Z,98385.28
2022-10-26T03:04:19.727Z,98379.88
2022-10-26T03:06:54.183Z,98374.13
2022-10-26T03:09:23.492Z,98365.59
2022-10-26T03:11:52.502Z,98365.84
2022-10-26T03:14:19.333Z,98363.22
2022-10-26T03:16:46.022Z,98370.22
2022-10-26T03:19:12.777Z,98370.63
2022-10-26T03:21:39.326Z,98357.69
2022-10-26T03:24:06.445Z,98370.69
2022-10-26T03:26:33.001Z,98351.50
2022-10-26T03:28:59.639Z,98359.50
2022-10-26T03:31:26.331Z,98370.34
2022-10-26T03:33:52.845Z,98367.16
2022-10-26T03:36:19.440Z,98363.28
2022-10-26T03:38:45.999Z,98376.22
2022-10-26T03:41:12.592Z,98368.19
2022-10-26T03:43:39.090Z,98375.41
2022-10-26T03:46:05.771Z,98366.38
2022-10-26T03:48:32.267Z,98367.16
2022-10-26T03:50:59.195Z,98375.16
2022-10-26T03:53:26.400Z,98358.94
2022-10-26T03:55:52.960Z,98374.38
2022-10-26T03:58:19.511Z,98366.84
2022-10-26T04:00:47.527Z,98354.00
2022-10-26T04:03:14.052Z,98367.13
2022-10-26T04:05:40.623Z,98363.03
2022-10-26T04:08:08.356Z,98367.13
2022-10-26T04:10:34.990Z,98364.97
2022-10-26T04:13:01.538Z,98368.75
2022-10-26T04:15:28.830Z,98365.13
2022-10-26T04:17:57.067Z,98373.19
2022-10-26T04:20:24.355Z,98362.31
2022-10-26T04:23:01.445Z,98380.38
2022-10-26T04:25:31.796Z,98365.00
2022-10-26T04:28:00.943Z,98367.22
2022-10-26T04:30:27.855Z,98357.88
2022-10-26T04:32:54.425Z,98363.84
2022-10-26T04:35:21.242Z,98356.06
2022-10-26T04:37:47.964Z,98355.50
2022-10-26T04:40:14.664Z,98367.47
2022-10-26T04:42:45.491Z,98349.69
2022-10-26T04:45:14.393Z,98364.78
2022-10-26T04:47:41.565Z,98365.59
2022-10-26T04:50:09.722Z,98360.13
2022-10-26T04:52:36.920Z,98355.38
2022-10-26T04:55:04.307Z,98357.88
2022-10-26T04:57:30.822Z,98361.50
2022-10-26T04:59:57.474Z,98366.78
2022-10-26T05:02:24.057Z,98358.69
2022-10-26T05:04:50.768Z,98359.16
2022-10-26T05:07:17.345Z,98360.97
2022-10-26T05:09:43.990Z,98359.44
2022-10-26T05:12:10.548Z,98355.81
2022-10-26T05:14:37.171Z,98351.56
2022-10-26T05:17:03.733Z,98349.56
2022-10-26T05:19:30.373Z,98347.56
2022-10-26T05:21:58.319Z,98355.19
2022-10-26T05:24:24.936Z,98357.63
2022-10-26T05:26:51.478Z,98350.22
2022-10-26T05:29:18.091Z,98352.34
2022-10-26T05:31:44.602Z,98356.81
2022-10-26T05:34:11.187Z,98352.72
2022-10-26T05:36:37.830Z,98354.88
2022-10-26T05:39:04.615Z,98356.53
2022-10-26T05:41:31.124Z,98361.16
2022-10-26T05:43:57.797Z,98359.88
2022-10-26T05:46:24.291Z,98355.13
2022-10-26T05:48:50.883Z,98368.84
2022-10-26T05:51:17.437Z,98363.69
2022-10-26T05:53:44.106Z,98367.34
2022-10-26T05:56:19.294Z,98360.44
2022-10-26T05:58:47.059Z,98363.78
2022-10-26T06:01:31.521Z,98368.59
2022-10-26T06:04:17.670Z,98368.38
2022-10-26T06:06:47.855Z,98366.81
2022-10-26T06:09:15.185Z,98368.41
2022-10-26T06:11:42.170Z,98371.44
2022-10-26T06:14:09.966Z,98377.19
2022-10-26T06:16:54.487Z,98378.19
2022-10-26T06:19:39.267Z,98376.22
2022-10-26T06:22:08.910Z,98368.63
2022-10-26T06:25:02.759Z,98376.13
2022-10-26T06:27:46.146Z,98372.59
2022-10-26T06:30:12.849Z,98373.97
2022-10-26T06:32:43.546Z,98375.53
2022-10-26T06:35:21.944Z,98373.47
2022-10-26T06:37:49.945Z,98391.28
2022-10-26T06:40:18.078Z,98377.88
2022-10-26T06:42:45.443Z,98385.34
2022-10-26T06:45:16.548Z,98396.69
2022-10-26T06:48:00.491Z,98391.16
2022-10-26T06:50:37.364Z,98388.34
2022-10-26T06:53:25.879Z,98366.09
2022-10-26T06:55:52.944Z,98411.59
2022-10-26T06:58:27.725Z,98407.16
2022-10-26T07:00:55.841Z,98408.59
2022-10-26T07:03:22.556Z,98396.72
2022-10-26T07:05:49.742Z,98408.34
2022-10-26T07:08:16.298Z,98403.91
2022-10-26T07:10:42.918Z,98412.53
2022-10-26T07:13:10.754Z,98407.06
2022-10-26T07:15:39.189Z,98411.19
2022-10-26T07:18:07.347Z,98412.22
2022-10-26T07:20:39.200Z,98417.63
2022-10-26T07:23:07.003Z,98412.91
2022-10-26T07:25:35.438Z,98424.53
2022-10-26T07:28:02.438Z,98415.72
2022-10-26T07:30:29.728Z,98426.97
2022-10-26T07:33:13.202Z,98426.16
2022-10-26T07:35:40.616Z,98422.25
2022-10-26T07:38:07.725Z,98425.88
2022-10-26T07:40:34.463Z,98433.63
2022-10-26T07:43:01.075Z,98432.78
2022-10-26T07:45:28.826Z,98431.22
2022-10-26T07:47:55.869Z,98426.41
2022-10-26T07:50:23.069Z,98429.56
2022-10-26T07:52:50.002Z,98425.66
2022-10-26T07:55:17.034Z,98412.13
2022-10-26T07:57:43.535Z,98418.47
2022-10-26T08:00:11.038Z,98418.34
2022-10-26T08:02:37.611Z,98426.19
2022-10-26T08:05:07.818Z,98415.94
2022-10-26T08:07:40.123Z,98416.66
2022-10-26T08:10:07.107Z,98423.69
2022-10-26T08:12:33.625Z,98423.34
2022-10-26T08:15:00.262Z,98426.16
2022-10-26T08:17:28.144Z,98425.72
2022-10-26T08:19:54.737Z,98420.72
2022-10-26T08:22:21.276Z,98421.47
2022-10-26T08:24:47.881Z,98421.53
2022-10-26T08:27:15.057Z,98388.47
2022-10-26T08:29:42.482Z,98425.97
2022-10-26T08:32:09.148Z,98430.81
2022-10-26T08:34:35.721Z,98428.44
2022-10-26T08:37:02.312Z,98425.66
2022-10-26T08:39:28.940Z,98425.03
2022-10-26T08:42:03.481Z,98423.06
2022-10-26T08:44:40.308Z,98433.94
2022-10-26T08:47:21.965Z,98441.50
2022-10-26T08:49:51.744Z,98440.56
2022-10-26T08:52:24.880Z,98442.41
2022-10-26T08:54:57.494Z,98439.84
2022-10-26T08:57:39.252Z,98444.88
2022-10-26T09:00:11.536Z,98449.22
2022-10-26T09:02:38.159Z,98451.47
2022-10-26T09:05:15.567Z,98458.59
2022-10-26T09:07:54.496Z,98458.78
2022-10-26T09:10:39.252Z,98456.09
2022-10-26T09:13:23.565Z,98455.38
2022-10-26T09:16:14.383Z,98449.78
2022-10-26T09:18:57.810Z,98448.81
2022-10-26T09:21:32.885Z,98451.66
2022-10-26T09:24:06.888Z,98446.41
2022-10-26T09:26:53.907Z,98460.25
2022-10-26T09:29:26.853Z,98452.59
2022-10-26T09:31:57.377Z,98456.69
2022-10-26T09:34:41.046Z,98468.13
2022-10-26T09:37:19.967Z,98488.66
2022-10-26T09:40:05.129Z,98478.91
2022-10-26T09:42:44.919Z,98482.53
2022-10-26T09:45:32.720Z,98474.66
2022-10-26T09:48:19.550Z,98479.59
2022-10-26T09:50:49.343Z,98474.91
2022-10-26T09:53:16.253Z,98479.44
2022-10-26T09:55:46.537Z,98474.78
2022-10-26T09:58:17.543Z,98477.38
2022-10-26T10:00:45.001Z,98471.16
2022-10-26T10:03:26.291Z,98465.91
2022-10-26T10:05:53.526Z,98468.19
2022-10-26T10:08:19.993Z,98467.97
2022-10-26T10:11:15.830Z,98459.00
2022-10-26T10:13:44.672Z,98434.53
2022-10-26T10:16:22.837Z,98468.81
2022-10-26T10:18:59.941Z,98431.28
2022-10-26T10:21:44.343Z,98475.09
2022-10-26T10:24:41.241Z,98480.25
2022-10-26T10:27:13.754Z,98476.59
2022-10-26T10:29:42.650Z,98470.84
2022-10-26T10:32:16.440Z,98480.00
2022-10-26T10:34:43.633Z,98487.56
2022-10-26T10:37:39.786Z,98483.09
2022-10-26T10:40:18.886Z,98491.25
2022-10-26T10:42:47.702Z,98456.16
2022-10-26T10:45:24.074Z,98491.66
2022-10-26T10:48:02.662Z,98485.53
2022-10-26T10:50:30.192Z,98492.69
2022-10-26T10:53:16.303Z,98495.16
2022-10-26T10:55:52.686Z,98498.56
2022-10-26T10:58:27.873Z,98458.78
2022-10-26T11:00:56.362Z,98490.13
2022-10-26T11:03:41.528Z,98494.00
2022-10-26T11:06:18.856Z,98479.53
2022-10-26T11:09:14.009Z,98482.56
2022-10-26T11:11:52.775Z,98482.19
2022-10-26T11:14:32.946Z,98483.16
2022-10-26T11:17:20.273Z,98470.22
2022-10-26T11:20:03.987Z,98456.84
2022-10-26T11:22:36.487Z,98464.00
2022-10-26T11:25:03.028Z,98459.59
2022-10-26T11:27:37.852Z,98457.50
2022-10-26T11:30:17.842Z,98463.94
2022-10-26T11:32:51.391Z,98455.09
2022-10-26T11:35:24.128Z,98474.47
2022-10-26T11:38:16.077Z,98477.25
2022-10-26T11:40:47.543Z,98469.47
2022-10-26T11:43:35.594Z,98471.63
2022-10-26T11:46:20.491Z,98483.22
2022-10-26T11:49:02.139Z,98487.81
2022-10-26T11:51:28.947Z,98486.13
2022-10-26T11:53:58.029Z,98487.44
2022-10-26T11:56:39.114Z,98497.78
2022-10-26T11:59:10.356Z,98497.16
2022-10-26T12:01:37.033Z,98497.59
2022-10-26T12:04:04.055Z,98492.28
2022-10-26T12:06:32.944Z,98489.38
2022-10-26T12:09:16.907Z,98484.78
2022-10-26T12:11:53.124Z,98498.13
2022-10-26T12:14:28.195Z,98496.47
2022-10-26T12:17:13.300Z,98499.72
2022-10-26T12:20:02.959Z,98497.72
2022-10-26T12:22:34.515Z,98477.59
2022-10-26T12:25:15.189Z,98494.47
2022-10-26T12:27:43.547Z,98508.25
2022-10-26T12:30:18.920Z,98499.59
2022-10-26T12:32:45.451Z,98501.06
2022-10-26T12:35:40.702Z,98502.75
2022-10-26T12:38:29.018Z,98508.94
2022-10-26T12:41:05.777Z,98498.88
2022-10-26T12:43:37.092Z,98500.50
2022-10-26T12:46:12.924Z,98499.81
2022-10-26T12:48:41.927Z,98494.09
2022-10-26T12:51:20.843Z,98491.22
2022-10-26T12:54:04.360Z,98490.16
2022-10-26T12:56:36.327Z,98496.31
2022-10-26T12:59:38.227Z,98500.41
2022-10-26T13:02:10.837Z,98487.25
2022-10-26T13:05:23.956Z,98500.59
2022-10-26T13:07:51.398Z,98502.94
2022-10-26T13:10:25.407Z,98499.97
2022-10-26T13:12:58.191Z,98500.94
2022-10-26T13:15:29.942Z,98492.69
2022-10-26T13:18:01.224Z,98506.63
2022-10-26T13:20:31.031Z,98504.28
2022-10-26T13:22:58.181Z,98500.28
2022-10-26T13:25:28.497Z,98501.97
2022-10-26T13:28:01.325Z,98508.38
2022-10-26T13:30:33.851Z,98498.94
2022-10-26T13:33:02.657Z,98506.56
2022-10-26T13:35:31.888Z,98504.75
2022-10-26T13:38:07.274Z,98512.34
2022-10-26T13:40:37.870Z,98487.28
2022-10-26T13:43:10.798Z,98518.28
2022-10-26T13:45:49.342Z,98518.72
2022-10-26T13:48:27.756Z,98518.63
2022-10-26T13:53:47.941Z,98523.88
2022-10-26T13:57:01.295Z,98540.38
2022-10-26T13:59:30.413Z,98536.69
2022-10-26T14:02:07.555Z,98530.31
2022-10-26T14:04:34.221Z,98529.72
2022-10-26T14:07:00.790Z,98528.59
2022-10-26T14:09:29.356Z,98537.50
2022-10-26T14:11:59.113Z,98539.63
2022-10-26T14:14:30.864Z,98545.66
2022-10-26T14:16:58.708Z,98542.41
2022-10-26T14:19:35.819Z,98543.63
2022-10-26T14:22:03.547Z,98511.28
2022-10-26T14:24:46.662Z,98548.03
2022-10-26T14:27:18.279Z,98545.72
2022-10-26T14:29:49.976Z,98538.78
2022-10-26T14:32:28.140Z,98546.19
2022-10-26T14:34:55.626Z,98547.75
2022-10-26T14:37:31.380Z,98547.16
2022-10-26T14:39:58.134Z,98547.47
2022-10-26T14:42:30.492Z,98549.88
2022-10-26T14:44:58.488Z,98544.75
2022-10-26T14:47:30.803Z,98540.03
2022-10-26T14:52:31.522Z,98553.31
2022-10-26T14:55:04.824Z,98548.53
2022-10-26T14:57:34.296Z,98557.09
2022-10-26T15:00:06.013Z,98540.81
2022-10-26T15:02:33.031Z,98565.38
2022-10-26T15:05:02.297Z,98563.88
2022-10-26T15:07:36.830Z,98558.25
2022-10-26T15:10:04.997Z,98572.94
2022-10-26T15:12:39.042Z,98570.94
2022-10-26T15:15:14.970Z,98576.28
2022-10-26T15:17:43.669Z,98583.44
2022-10-26T15:20:19.407Z,98582.81
2022-10-26T15:22:52.309Z,98580.09
2022-10-26T15:25:22.516Z,98590.03
2022-10-26T15:27:49.700Z,98536.63
2022-10-26T15:30:18.895Z,98589.97
2022-10-26T15:32:46.154Z,98594.09
2022-10-26T15:35:18.632Z,98594.94
2022-10-26T15:37:47.901Z,98600.50
2022-10-26T15:40:14.935Z,98614.22
2022-10-26T15:42:42.903Z,98610.97
2022-10-26T15:45:22.931Z,98613.13
2022-10-26T15:47:51.667Z,98617.13
2022-10-26T15:50:21.409Z,98626.22
2022-10-26T15:52:49.429Z,98617.03
2022-10-26T15:55:17.469Z,98635.84
2022-10-26T15:57:44.327Z,98630.28
2022-10-26T16:00:15.726Z,98635.03
2022-10-26T16:02:43.744Z,98644.41
2022-10-26T16:05:11.667Z,98635.47
2022-10-26T16:07:39.891Z,98644.97
2022-10-26T16:10:06.739Z,98647.00
2022-10-26T16:12:33.320Z,98642.06
2022-10-26T16:15:05.657Z,98648.16
2022-10-26T16:17:32.845Z,98654.91
2022-10-26T16:19:59.409Z,98656.25
2022-10-26T16:22:26.053Z,98656.88
2022-10-26T16:24:52.554Z,98662.63
2022-10-26T16:27:19.130Z,98668.88
2022-10-26T16:29:45.726Z,98672.13
2022-10-26T16:32:12.258Z,98676.03
2022-10-26T16:34:39.690Z,98678.81
2022-10-26T16:37:06.410Z,98692.50
2022-10-26T16:39:32.916Z,98695.25
2022-10-26T16:41:59.716Z,98691.44
2022-10-26T16:44:26.253Z,98692.84
2022-10-26T16:46:52.780Z,98706.69
2022-10-26T16:49:19.292Z,98703.66
2022-10-26T16:51:45.947Z,98708.59
2022-10-26T16:54:12.452Z,98678.56
2022-10-26T16:56:39.040Z,98708.53
2022-10-26T16:59:05.662Z,98714.03
2022-10-26T17:01:32.291Z,98713.66
2022-10-26T17:03:58.952Z,98712.81
2022-10-26T17:06:25.666Z,98708.38
2022-10-26T17:08:52.168Z,98719.50
2022-10-26T17:11:21.056Z,98721.47
2022-10-26T17:13:48.030Z,98734.38
2022-10-26T17:16:17.554Z,98733.75
2022-10-26T17:18:45.035Z,98739.50
2022-10-26T17:21:13.193Z,98737.44
2022-10-26T17:23:40.211Z,98736.25
2022-10-26T17:26:09.808Z,98745.19
2022-10-26T17:28:37.508Z,98730.28
2022-10-26T17:31:10.188Z,98752.34
2022-10-26T17:33:38.711Z,98757.06
2022-10-26T17:36:07.262Z,98777.13
2022-10-26T17:38:36.912Z,98772.25
2022-10-26T17:41:06.071Z,98780.59
2022-10-26T17:43:34.900Z,98786.72
2022-10-26T17:46:03.824Z,98788.97
2022-10-26T17:48:31.449Z,98786.75
2022-10-26T17:51:02.009Z,98792.06
2022-10-26T17:53:30.074Z,98792.47
2022-10-26T17:56:10.766Z,98797.38
2022-10-26T17:58:38.021Z,98796.34
2022-10-26T18:01:06.901Z,98795.94
2022-10-26T18:03:34.279Z,98803.72
2022-10-26T18:06:01.502Z,98801.66
2022-10-26T18:08:31.815Z,98808.44
2022-10-26T18:10:58.488Z,98808.44
2022-10-26T18:13:27.259Z,98802.94
2022-10-26T18:15:53.788Z,98813.13
2022-10-26T18:18:20.624Z,98822.09
2022-10-26T18:20:47.110Z,98819.03
2022-10-26T18:23:13.723Z,98817.66
2022-10-26T18:25:40.263Z,98827.84
2022-10-26T18:28:06.894Z,98831.72
2022-10-26T18:30:33.909Z,98819.44
2022-10-26T18:33:00.673Z,98829.91
2022-10-26T18:35:27.179Z,98832.75
2022-10-26T18:37:54.084Z,98831.06
2022-10-26T18:40:21.059Z,98843.34
2022-10-26T18:42:47.655Z,98834.94
2022-10-26T18:45:14.506Z,98833.50
2022-10-26T18:47:41.152Z,98842.09
2022-10-26T18:50:08.007Z,98851.25
2022-10-26T18:52:34.584Z,98858.41
2022-10-26T18:55:01.134Z,98859.88
2022-10-26T18:57:28.176Z,98855.53
2022-10-26T18:59:55.192Z,98862.69
2022-10-26T19:02:22.252Z,98868.66
2022-10-26T19:04:48.763Z,98865.78
2022-10-26T19:07:15.347Z,98866.00
2022-10-26T19:09:42.245Z,98870.91
2022-10-26T19:12:08.858Z,98877.03
2022-10-26T19:14:35.362Z,98881.31
2022-10-26T19:17:02.112Z,98880.13
2022-10-26T19:19:28.615Z,98878.88
2022-10-26T19:21:55.169Z,98890.72
2022-10-26T19:24:23.312Z,98890.94
2022-10-26T19:26:50.824Z,98891.34
2022-10-26T19:29:18.295Z,98892.59
2022-10-26T19:31:46.389Z,98897.69
2022-10-26T19:34:14.514Z,98902.63
2022-10-26T19:36:41.297Z,98891.91
2022-10-26T19:39:08.148Z,98902.38
2022-10-26T19:41:34.712Z,98913.44
2022-10-26T19:44:01.410Z,98911.16
2022-10-26T19:46:29.379Z,98915.28
2022-10-26T19:48:58.037Z,98925.28
2022-10-26T19:51:26.625Z,98871.03
2022-10-26T19:53:53.450Z,98924.63
2022-10-26T19:56:20.380Z,98921.97
2022-10-26T19:58:47.709Z,98929.94
2022-10-26T20:01:15.804Z,98939.72
2022-10-26T20:03:42.586Z,98936.38
2022-10-26T20:06:10.582Z,98944.75
2022-10-26T20:08:38.160Z,98945.03
2022-10-26T20:11:08.968Z,98952.75
2022-10-26T20:13:39.514Z,98949.91
2022-10-26T20:16:07.211Z,98949.50
2022-10-26T20:18:34.464Z,98957.69
2022-10-26T20:21:01.030Z,98958.13
2022-10-26T20:23:27.598Z,98966.56
2022-10-26T20:25:54.121Z,98966.91
2022-10-26T20:28:20.832Z,98971.00
2022-10-26T20:30:48.925Z,98941.72
2022-10-26T20:33:15.766Z,98971.28
2022-10-26T20:35:42.695Z,98975.53
2022-10-26T20:38:17.588Z,98984.72
2022-10-26T20:40:45.057Z,98988.78
2022-10-26T20:43:16.903Z,98971.34
2022-10-26T20:45:43.769Z,98989.00
2022-10-26T20:48:12.092Z,98993.09
2022-10-26T20:50:40.544Z,98994.53
2022-10-26T20:53:25.586Z,98997.56
2022-10-26T20:55:54.910Z,99000.19
2022-10-26T20:58:38.681Z,98992.22
2022-10-26T21:01:27.107Z,99000.38
2022-10-26T21:03:55.328Z,99001.78
2022-10-26T21:06:22.519Z,99004.19
2022-10-26T21:08:50.317Z,98983.94
2022-10-26T21:11:17.914Z,99002.97
2022-10-26T21:13:46.399Z,99005.59
2022-10-26T21:16:16.951Z,99017.06
2022-10-26T21:18:43.773Z,99015.25
2022-10-26T21:21:10.396Z,99002.31
2022-10-26T21:23:39.406Z,99017.03
2022-10-26T21:26:06.815Z,99015.78
2022-10-26T21:28:38.770Z,99027.03
2022-10-26T21:31:07.459Z,98993.56
2022-10-26T21:33:34.237Z,99034.34
2022-10-26T21:36:09.276Z,98992.72
2022-10-26T21:38:35.791Z,99016.91
2022-10-26T21:41:04.565Z,99032.09
2022-10-26T21:43:32.829Z,99033.25
2022-10-26T21:46:03.562Z,99034.47
2022-10-26T21:48:31.782Z,99035.66
2022-10-26T21:50:58.399Z,99040.53
2022-10-26T21:53:26.950Z,99039.28
2022-10-26T21:56:05.334Z,99044.59
2022-10-26T21:58:32.460Z,99010.06
2022-10-26T22:01:06.154Z,99042.25
2022-10-26T22:03:33.325Z,99052.78
2022-10-26T22:06:00.089Z,99046.00
2022-10-26T22:08:27.253Z,99050.66
2022-10-26T22:10:53.814Z,99050.84
2022-10-26T22:13:23.548Z,99049.19
2022-10-26T22:16:00.529Z,99052.84
2022-10-26T22:18:27.070Z,99054.72
2022-10-26T22:20:59.875Z,99053.50
2022-10-26T22:23:26.569Z,99053.13
2022-10-26T22:25:53.079Z,99046.63
2022-10-26T22:28:19.920Z,99043.78
2022-10-26T22:30:46.471Z,99050.25
2022-10-26T22:33:13.483Z,99039.41
2022-10-26T22:35:39.982Z,99048.34
2022-10-26T22:38:08.903Z,99049.53
2022-10-26T22:40:35.396Z,99051.94
2022-10-26T22:43:02.045Z,99050.47
2022-10-26T22:45:28.716Z,99052.84
2022-10-26T22:47:55.331Z,99048.56
2022-10-26T22:50:21.862Z,99047.72
2022-10-26T22:52:48.609Z,99041.97
2022-10-26T22:55:15.343Z,99045.81
2022-10-26T22:57:41.928Z,99041.06
2022-10-26T23:00:09.124Z,99043.25
2022-10-26T23:02:35.663Z,99053.22
2022-10-26T23:05:02.173Z,99045.91
2022-10-26T23:07:29.360Z,99053.22
2022-10-26T23:09:56.104Z,99048.38
2022-10-26T23:12:22.748Z,99053.66
2022-10-26T23:14:49.332Z,99053.41
2022-10-26T23:17:16.000Z,99056.75
2022-10-26T23:19:42.486Z,99059.28
2022-10-26T23:22:09.159Z,99063.31
2022-10-26T23:24:35.669Z,99063.50
2022-10-26T23:27:02.256Z,99066.31
2022-10-26T23:29:28.798Z,99072.41
2022-10-26T23:31:55.450Z,99072.41
2022-10-26T23:34:21.945Z,99074.22
2022-10-26T23:36:48.540Z,99074.06
2022-10-26T23:39:15.049Z,99080.19
2022-10-26T23:41:41.595Z,99085.28
2022-10-26T23:44:08.160Z,99088.13
2022-10-26T23:46:34.843Z,99085.47
2022-10-26T23:49:01.467Z,99086.56
2022-10-26T23:51:28.295Z,99078.38
2022-10-26T23:53:54.809Z,99085.38
2022-10-26T23:56:21.368Z,99089.69
2022-10-26T23:58:50.876Z,99090.69
